Time;durP1;ratioP1;P1;durP2;ratioP2;P2;SDS_P1;SDS_P2;PMS_P1;PMS_P2;Temp;Humidity;BMP_temperature;BMP_pressure;BME280_temperature;BME280_humidity;BME280_pressure;Samples;Min_cycle;Max_cycle;Signal;HPM_P1;HPM_P2
2024/01/20 00:01:26;;;;;;;8.80;5.43;;;19.30;42.30;;;;;;5093832;28;20040;-76
2024/01/20 00:03:53;;;;;;;10.23;5.15;;;18.50;42.50;;;;;;5111585;28;20039;-76
2024/01/20 00:06:19;;;;;;;7.13;4.90;;;16.60;41.10;;;;;;5111517;28;20118;-75
2024/01/20 00:08:45;;;;;;;7.93;5.07;;;16.60;41.20;;;;;;5111570;28;20367;-76
2024/01/20 00:11:12;;;;;;;8.90;5.30;;;18.20;42.10;;;;;;5111598;28;20040;-76
2024/01/20 00:13:38;;;;;;;7.80;4.53;;;18.30;42.20;;;;;;5093271;28;20482;-75
2024/01/20 00:16:04;;;;;;;9.65;5.22;;;18.70;42.20;;;;;;5111496;28;20449;-76
2024/01/20 00:18:30;;;;;;;6.68;4.60;;;18.30;42.10;;;;;;5111437;28;20510;-76
2024/01/20 00:20:57;;;;;;;10.82;5.65;;;18.30;42.10;;;;;;5111572;28;20088;-75
2024/01/20 00:23:23;;;;;;;10.35;6.00;;;18.00;42.10;;;;;;5111439;28;20028;-75
2024/01/20 00:25:49;;;;;;;14.35;8.32;;;18.80;43.50;;;;;;5111777;28;20032;-76
2024/01/20 00:28:17;;;;;;;9.50;5.25;;;18.60;42.20;;;;;;5111245;28;20089;-75
2024/01/20 00:30:43;;;;;;;13.20;6.32;;;17.20;40.80;;;;;;5092991;28;20427;-75
2024/01/20 00:33:09;;;;;;;8.30;5.30;;;18.80;42.90;;;;;;5129261;27;20106;-76
2024/01/20 00:35:36;;;;;;;7.45;5.43;;;18.90;42.30;;;;;;5113371;28;20042;-75
2024/01/20 00:38:03;;;;;;;8.35;4.95;;;19.00;41.90;;;;;;5128465;27;20031;-76
2024/01/20 00:40:29;;;;;;;8.93;5.50;;;18.80;41.80;;;;;;5114909;28;20129;-76
2024/01/20 00:42:56;;;;;;;8.07;4.70;;;18.90;40.40;;;;;;5097276;28;20028;-75
2024/01/20 00:45:22;;;;;;;9.88;5.10;;;18.70;41.20;;;;;;5115329;28;20024;-76
2024/01/20 00:47:48;;;;;;;10.35;5.53;;;18.90;42.30;;;;;;5115127;28;20451;-76
2024/01/20 00:50:14;;;;;;;10.00;5.07;;;18.90;42.40;;;;;;5097094;28;20035;-76
2024/01/20 00:52:40;;;;;;;11.13;5.72;;;18.90;42.30;;;;;;5096912;28;20035;-76
2024/01/20 00:55:06;;;;;;;12.27;6.22;;;19.00;41.80;;;;;;5115137;28;20027;-75
2024/01/20 00:57:33;;;;;;;8.48;4.97;;;19.00;41.50;;;;;;5115375;28;20106;-76
2024/01/20 00:59:59;;;;;;;10.57;5.47;;;19.00;41.40;;;;;;5096762;28;20027;-76
2024/01/20 01:02:26;;;;;;;9.32;5.88;;;19.10;41.50;;;;;;5114794;28;20096;-76
2024/01/20 01:04:52;;;;;;;11.25;5.05;;;19.10;41.40;;;;;;5115279;28;20042;-75
2024/01/20 01:07:18;;;;;;;11.25;5.55;;;19.10;41.50;;;;;;5096181;28;20036;-76
2024/01/20 01:09:44;;;;;;;9.35;5.28;;;19.00;41.40;;;;;;5114915;28;20035;-76
2024/01/20 01:12:10;;;;;;;8.18;5.25;;;19.00;41.50;;;;;;5096481;28;20043;-74
2024/01/20 01:14:37;;;;;;;10.95;6.20;;;19.00;41.40;;;;;;5114674;28;20036;-75
2024/01/20 01:17:03;;;;;;;11.60;5.40;;;19.10;41.60;;;;;;5079317;28;21020;-76
2024/01/20 01:19:29;;;;;;;9.45;5.97;;;18.90;41.40;;;;;;5114616;28;20138;-77
2024/01/20 01:21:55;;;;;;;9.57;5.70;;;18.90;40.80;;;;;;5096506;28;20059;-75
2024/01/20 01:24:21;;;;;;;8.70;5.35;;;19.00;41.70;;;;;;5096475;28;20394;-75
2024/01/20 01:26:47;;;;;;;12.23;5.60;;;18.90;41.70;;;;;;5096183;28;20101;-75
2024/01/20 01:29:14;;;;;;;12.23;6.25;;;19.00;41.60;;;;;;5114179;28;20089;-76
2024/01/20 01:31:40;;;;;;;7.45;5.20;;;18.90;41.60;;;;;;5095956;28;20127;-75
2024/01/20 01:34:06;;;;;;;11.73;6.15;;;18.90;41.60;;;;;;5111352;28;20526;-76
2024/01/20 01:36:32;;;;;;;11.20;5.88;;;19.00;41.50;;;;;;5112009;28;20542;-76
2024/01/20 01:38:58;;;;;;;9.70;6.18;;;18.90;41.50;;;;;;5094933;28;20035;-75
2024/01/20 01:41:24;;;;;;;10.93;6.13;;;18.90;41.70;;;;;;5111545;28;20513;-75
2024/01/20 01:43:50;;;;;;;9.43;6.45;;;18.90;41.70;;;;;;5111934;28;20048;-75
2024/01/20 01:46:16;;;;;;;12.18;7.05;;;18.90;41.80;;;;;;5111674;28;20043;-75
2024/01/20 01:48:43;;;;;;;11.02;6.82;;;19.00;41.70;;;;;;5111524;28;20487;-76
2024/01/20 01:51:09;;;;;;;13.52;7.80;;;18.90;41.70;;;;;;5111332;28;20028;-77
2024/01/20 01:53:36;;;;;;;13.88;6.78;;;18.90;41.50;;;;;;5094974;28;20059;-76
2024/01/20 01:56:03;;;;;;;13.38;7.30;;;19.10;41.40;;;;;;5094458;28;20043;-76
2024/01/20 01:58:29;;;;;;;10.88;7.38;;;19.00;41.40;;;;;;5111402;28;20065;-76
2024/01/20 02:00:55;;;;;;;15.75;7.60;;;19.00;41.60;;;;;;5094399;28;20047;-76
2024/01/20 02:03:21;;;;;;;13.30;7.60;;;19.00;41.70;;;;;;5111277;28;20475;-76
2024/01/20 02:05:47;;;;;;;15.77;8.00;;;19.00;41.50;;;;;;5095157;28;20092;-75
2024/01/20 02:08:14;;;;;;;12.57;7.40;;;18.90;41.70;;;;;;5113485;28;20470;-76
2024/01/20 02:10:43;;;;;;;13.18;7.63;;;19.10;39.40;;;;;;5113580;28;20047;-76
2024/01/20 02:13:13;;;;;;;12.68;7.72;;;19.00;41.50;;;;;;5095079;28;20407;-76
2024/01/20 02:15:39;;;;;;;13.85;8.18;;;19.00;41.50;;;;;;5113369;28;20073;-75
2024/01/20 02:18:05;;;;;;;17.17;8.63;;;20.90;42.20;;;;;;5113158;28;20494;-75
2024/01/20 02:20:31;;;;;;;13.05;7.00;;;19.00;41.10;;;;;;5114052;28;20043;-76
2024/01/20 02:22:58;;;;;;;14.48;8.20;;;18.90;41.30;;;;;;5113689;28;20757;-75
2024/01/20 02:25:24;;;;;;;13.32;7.63;;;18.90;41.50;;;;;;5078443;28;20061;-75
2024/01/20 02:27:50;;;;;;;14.48;7.60;;;19.00;41.50;;;;;;5113399;28;20562;-75
2024/01/20 02:30:16;;;;;;;14.40;8.40;;;19.00;41.40;;;;;;5113896;28;20111;-76
2024/01/20 02:32:42;;;;;;;13.00;7.53;;;19.10;41.50;;;;;;5113330;28;20031;-76
2024/01/20 02:35:09;;;;;;;12.73;6.45;;;19.00;41.30;;;;;;5113203;28;20394;-76
2024/01/20 02:37:35;;;;;;;13.55;6.95;;;19.00;41.30;;;;;;5112976;28;20027;-75
2024/01/20 02:40:02;;;;;;;14.38;7.05;;;18.90;41.40;;;;;;5121387;27;20095;-75
2024/01/20 02:42:28;;;;;;;16.77;7.57;;;19.00;41.30;;;;;;5112873;28;20055;-76
2024/01/20 02:44:54;;;;;;;12.45;7.32;;;18.90;41.20;;;;;;5077505;28;20047;-76
2024/01/20 02:47:20;;;;;;;14.88;7.88;;;19.10;41.40;;;;;;5094635;28;20145;-76
2024/01/20 02:49:46;;;;;;;12.60;7.90;;;19.10;41.30;;;;;;5069514;28;20044;-76
2024/01/20 02:52:12;;;;;;;15.40;8.73;;;19.00;41.10;;;;;;5052690;28;20041;-76
2024/01/20 02:54:39;;;;;;;13.27;8.15;;;19.00;41.30;;;;;;5069618;28;20063;-75
2024/01/20 02:57:05;;;;;;;13.25;7.88;;;18.90;41.30;;;;;;5069393;28;20040;-75
2024/01/20 02:59:31;;;;;;;12.77;7.70;;;19.00;41.40;;;;;;5069716;28;20047;-76
2024/01/20 03:01:58;;;;;;;15.30;7.72;;;19.00;41.30;;;;;;5052350;28;20037;-75
2024/01/20 03:04:24;;;;;;;16.27;9.25;;;19.10;41.30;;;;;;5052804;28;20084;-76
2024/01/20 03:06:50;;;;;;;16.95;9.23;;;19.10;40.20;;;;;;5029390;28;20607;-76
2024/01/20 03:09:16;;;;;;;18.48;9.65;;;19.10;41.00;;;;;;5012571;28;20052;-75
2024/01/20 03:11:42;;;;;;;13.85;8.13;;;19.10;41.10;;;;;;5029520;28;20069;-76
2024/01/20 03:14:09;;;;;;;16.55;8.65;;;19.10;41.10;;;;;;5029491;28;20061;-76
2024/01/20 03:16:36;;;;;;;19.10;9.15;;;19.20;41.10;;;;;;5029531;28;20054;-76
2024/01/20 03:19:02;;;;;;;15.25;8.50;;;19.00;40.90;;;;;;5029115;28;20068;-76
2024/01/20 03:21:28;;;;;;;14.73;8.15;;;19.10;40.80;;;;;;5060699;28;20053;-76
2024/01/20 03:23:54;;;;;;;16.08;9.00;;;19.30;40.80;;;;;;5052328;28;20115;-75
2024/01/20 03:26:20;;;;;;;11.80;7.57;;;19.00;41.10;;;;;;5052538;28;20049;-76
2024/01/20 03:28:46;;;;;;;15.35;8.65;;;19.00;39.00;;;;;;5068683;28;20447;-75
2024/01/20 03:31:12;;;;;;;16.23;9.18;;;18.70;40.30;;;;;;5069183;28;20033;-76
2024/01/20 03:33:38;;;;;;;14.70;9.10;;;18.70;40.70;;;;;;5052254;28;20481;-75
2024/01/20 03:36:05;;;;;;;16.17;8.90;;;18.40;40.90;;;;;;5068962;28;20024;-76
2024/01/20 03:38:31;;;;;;;20.63;9.43;;;18.40;41.10;;;;;;5086457;28;20036;-76
2024/01/20 03:40:57;;;;;;;12.75;8.52;;;18.30;41.30;;;;;;5090719;28;20126;-75
2024/01/20 03:43:24;;;;;;;17.40;9.10;;;16.30;40.50;;;;;;5073789;28;20086;-75
2024/01/20 03:45:50;;;;;;;19.63;10.10;;;18.30;41.70;;;;;;5073536;28;20382;-76
2024/01/20 03:48:16;;;;;;;15.20;8.52;;;18.20;41.80;;;;;;5090186;28;20028;-76
2024/01/20 03:50:42;;;;;;;16.95;9.90;;;18.20;41.90;;;;;;5091424;28;20023;-76
2024/01/20 03:53:08;;;;;;;18.25;9.50;;;18.10;41.80;;;;;;5090209;28;20036;-77
2024/01/20 03:55:34;;;;;;;18.02;10.00;;;18.00;41.70;;;;;;5091440;28;20038;-76
2024/01/20 03:58:01;;;;;;;19.20;9.77;;;18.10;41.80;;;;;;5090503;28;20533;-76
2024/01/20 04:00:27;;;;;;;22.25;9.52;;;18.00;41.80;;;;;;5091242;28;20455;-75
2024/01/20 04:02:53;;;;;;;15.65;9.32;;;18.10;41.80;;;;;;5091049;28;20089;-75
2024/01/20 04:05:19;;;;;;;18.02;10.00;;;18.20;42.00;;;;;;5090123;28;20061;-76
2024/01/20 04:07:46;;;;;;;23.38;10.98;;;18.10;41.90;;;;;;5090978;28;20070;-75
2024/01/20 04:10:12;;;;;;;16.10;9.23;;;18.20;41.90;;;;;;5091331;28;20035;-76
2024/01/20 04:12:41;;;;;;;18.40;9.50;;;18.20;42.20;;;;;;5091102;28;20074;-76
2024/01/20 04:15:08;;;;;;;14.13;8.80;;;18.00;42.20;;;;;;5091184;28;20036;-76
2024/01/20 04:17:34;;;;;;;17.83;9.90;;;18.00;42.00;;;;;;5090978;28;20077;-75
2024/01/20 04:20:01;;;;;;;15.30;8.40;;;18.10;42.00;;;;;;5090023;28;20024;-76
2024/01/20 04:22:27;;;;;;;19.50;9.55;;;15.60;40.80;;;;;;5091282;28;20093;-75
2024/01/20 04:24:53;;;;;;;18.88;9.70;;;17.90;41.80;;;;;;5091594;28;20036;-76
2024/01/20 04:27:19;;;;;;;17.00;9.52;;;18.20;41.90;;;;;;5072967;28;20067;-76
2024/01/20 04:29:45;;;;;;;20.83;9.95;;;18.20;41.90;;;;;;5091237;28;20028;-76
2024/01/20 04:32:11;;;;;;;16.42;9.82;;;18.20;41.80;;;;;;5090902;28;20147;-75
2024/01/20 04:34:37;;;;;;;16.50;10.18;;;18.20;41.70;;;;;;5090864;28;20085;-76
2024/01/20 04:37:03;;;;;;;22.40;9.77;;;18.20;41.80;;;;;;5090891;28;20085;-76
2024/01/20 04:39:29;;;;;;;15.95;9.55;;;18.10;41.70;;;;;;5089153;28;20043;-75
2024/01/20 04:41:56;;;;;;;16.60;9.77;;;19.00;42.00;;;;;;5090299;28;20077;-75
2024/01/20 04:44:22;;;;;;;20.35;10.85;;;19.90;42.50;;;;;;5105588;28;20517;-75
2024/01/20 04:46:48;;;;;;;20.90;10.32;;;18.20;41.60;;;;;;5089810;28;20476;-76
2024/01/20 04:49:14;;;;;;;19.30;10.60;;;18.20;41.60;;;;;;5090422;28;20044;-76
2024/01/20 04:51:41;;;;;;;16.13;9.48;;;20.30;42.80;;;;;;5088944;28;20131;-77
2024/01/20 04:54:07;;;;;;;17.23;9.48;;;18.40;41.90;;;;;;5089031;28;20468;-75
2024/01/20 04:56:33;;;;;;;19.17;9.77;;;18.10;41.70;;;;;;5090186;28;20043;-76
2024/01/20 04:58:59;;;;;;;20.50;10.25;;;18.00;41.60;;;;;;5090342;28;20094;-75
2024/01/20 05:01:25;;;;;;;17.85;8.90;;;18.60;41.90;;;;;;5090117;28;20024;-76
2024/01/20 05:03:51;;;;;;;16.63;9.50;;;18.00;41.70;;;;;;5090652;28;20032;-75
2024/01/20 05:06:17;;;;;;;17.60;10.27;;;18.10;41.80;;;;;;5090457;28;20032;-75
2024/01/20 05:08:43;;;;;;;16.45;9.35;;;18.20;41.90;;;;;;5088794;28;20479;-76
2024/01/20 05:11:10;;;;;;;12.60;6.78;;;18.10;41.90;;;;;;5055526;28;20448;-75
2024/01/20 05:13:36;;;;;;;14.27;7.85;;;15.80;40.90;;;;;;5088897;28;20110;-76
2024/01/20 05:16:02;;;;;;;13.30;7.38;;;18.00;41.90;;;;;;5090410;28;20036;-76
2024/01/20 05:18:28;;;;;;;15.25;8.48;;;18.00;41.80;;;;;;5089783;28;20020;-75
2024/01/20 05:20:54;;;;;;;15.40;8.63;;;18.00;41.90;;;;;;5090363;28;20115;-76
2024/01/20 05:23:20;;;;;;;17.23;7.80;;;15.90;41.00;;;;;;5090515;28;20040;-76
2024/01/20 05:25:46;;;;;;;15.05;7.28;;;18.10;42.00;;;;;;5092749;28;20192;-76
2024/01/20 05:28:12;;;;;;;14.98;8.10;;;18.00;41.80;;;;;;5104792;28;20802;-76
2024/01/20 05:30:38;;;;;;;15.43;7.90;;;17.50;41.60;;;;;;5114564;28;20081;-76
2024/01/20 05:33:04;;;;;;;16.92;7.85;;;18.20;41.90;;;;;;5095830;28;20028;-76
2024/01/20 05:35:30;;;;;;;11.70;7.15;;;17.80;41.70;;;;;;5096053;28;20027;-75
2024/01/20 05:37:56;;;;;;;14.88;8.00;;;18.10;41.60;;;;;;5114444;28;20023;-75
2024/01/20 05:40:22;;;;;;;15.10;8.38;;;18.20;41.60;;;;;;5114372;28;20467;-75
2024/01/20 05:42:49;;;;;;;15.02;6.63;;;18.30;41.70;;;;;;5114403;28;20032;-76
2024/01/20 05:45:15;;;;;;;15.00;8.55;;;18.20;41.50;;;;;;5114100;28;20028;-76
2024/01/20 05:47:41;;;;;;;16.25;8.45;;;17.30;41.50;;;;;;5114048;28;20050;-76
2024/01/20 05:50:08;;;;;;;14.57;7.75;;;15.40;39.80;;;;;;5113820;28;20032;-75
2024/01/20 05:52:34;;;;;;;10.73;6.20;;;18.80;42.90;;;;;;5113960;28;20302;-76
2024/01/20 05:55:00;;;;;;;15.02;8.20;;;18.30;41.30;;;;;;5113820;28;20031;-76
2024/01/20 05:57:26;;;;;;;14.88;8.20;;;18.10;41.30;;;;;;5113666;28;20491;-76
2024/01/20 05:59:52;;;;;;;12.40;7.13;;;18.20;41.50;;;;;;5113922;28;20035;-75
2024/01/20 06:02:18;;;;;;;10.65;6.55;;;18.20;41.40;;;;;;5095440;28;20039;-76
2024/01/20 06:04:45;;;;;;;12.40;6.63;;;18.50;42.60;;;;;;5113684;28;20031;-77
2024/01/20 06:07:11;;;;;;;14.85;6.55;;;18.20;43.00;;;;;;5095243;28;20023;-76
2024/01/20 06:09:37;;;;;;;15.25;7.25;;;18.40;42.60;;;;;;5113864;28;20085;-75
2024/01/20 06:12:03;;;;;;;11.40;6.45;;;19.90;41.80;;;;;;5113820;28;20061;-76
2024/01/20 06:14:30;;;;;;;15.32;7.35;;;18.60;41.90;;;;;;5095320;28;20106;-76
2024/01/20 06:16:56;;;;;;;10.30;5.85;;;18.60;42.20;;;;;;5095393;28;20036;-75
2024/01/20 06:19:22;;;;;;;10.02;6.15;;;18.50;42.10;;;;;;5113311;28;20463;-75
2024/01/20 06:21:48;;;;;;;7.75;4.88;;;18.40;41.00;;;;;;5095238;28;20105;-76
2024/01/20 06:24:14;;;;;;;7.78;4.60;;;18.40;40.50;;;;;;5113467;28;20067;-77
2024/01/20 06:26:40;;;;;;;9.20;4.93;;;18.40;40.90;;;;;;5070055;28;20036;-75
2024/01/20 06:29:06;;;;;;;8.93;5.40;;;18.50;42.70;;;;;;5053041;28;20044;-76
2024/01/20 06:31:32;;;;;;;9.85;5.22;;;18.60;41.90;;;;;;5053461;28;20083;-76
2024/01/20 06:33:58;;;;;;;16.73;6.90;;;18.80;39.40;;;;;;5036359;28;20112;-76
2024/01/20 06:36:27;;;;;;;14.63;6.50;;;19.00;41.30;;;;;;5053350;28;20131;-76
2024/01/20 06:38:53;;;;;;;13.90;7.28;;;18.70;39.40;;;;;;5069930;28;20051;-75
2024/01/20 06:41:20;;;;;;;13.90;7.22;;;16.00;38.10;;;;;;5070069;28;20049;-76
2024/01/20 06:43:46;;;;;;;14.38;8.48;;;18.60;41.80;;;;;;5069960;28;20455;-76
2024/01/20 06:46:12;;;;;;;12.68;7.25;;;16.50;39.80;;;;;;5069757;28;20044;-76
2024/01/20 06:48:39;;;;;;;17.88;8.55;;;18.50;41.90;;;;;;5069477;28;20040;-77
2024/01/20 06:51:06;;;;;;;17.58;8.82;;;18.50;40.20;;;;;;5081622;28;20090;-75
2024/01/20 06:53:32;;;;;;;13.90;7.25;;;18.60;40.20;;;;;;5073191;28;20036;-76
2024/01/20 06:55:58;;;;;;;13.82;8.13;;;18.40;40.40;;;;;;5057192;28;20239;-76
2024/01/20 06:58:24;;;;;;;17.02;8.90;;;18.50;40.50;;;;;;5104350;28;20047;-76
2024/01/20 07:00:51;;;;;;;16.38;8.48;;;16.90;41.70;;;;;;5094219;28;20356;-75
2024/01/20 07:03:17;;;;;;;11.27;7.10;;;18.40;40.50;;;;;;5112773;28;20077;-76
2024/01/20 07:05:43;;;;;;;13.85;8.63;;;18.30;40.90;;;;;;5112596;28;20439;-76
2024/01/20 07:08:10;;;;;;;11.95;6.78;;;18.20;41.10;;;;;;5112844;28;20040;-76
2024/01/20 07:10:36;;;;;;;19.17;9.52;;;18.30;41.30;;;;;;5112513;28;20091;-76
2024/01/20 07:13:02;;;;;;;17.50;9.20;;;18.10;41.30;;;;;;5093718;28;20069;-77
2024/01/20 07:15:28;;;;;;;19.05;9.52;;;18.20;41.40;;;;;;5112578;28;20035;-77
2024/01/20 07:17:58;;;;;;;17.00;9.48;;;18.00;41.40;;;;;;5112473;28;20031;-76
2024/01/20 07:20:25;;;;;;;16.00;8.25;;;18.10;41.50;;;;;;5112649;28;20066;-76
2024/01/20 07:22:51;;;;;;;20.42;9.50;;;18.10;41.60;;;;;;5094173;28;20088;-76
2024/01/20 07:25:20;;;;;;;18.20;10.00;;;18.00;41.60;;;;;;5112513;28;20134;-76
2024/01/20 07:27:46;;;;;;;16.55;8.98;;;18.00;41.60;;;;;;5093912;28;20882;-75
2024/01/20 07:30:12;;;;;;;17.02;8.93;;;18.00;41.70;;;;;;5112122;28;20108;-76
2024/01/20 07:32:40;;;;;;;18.88;9.77;;;17.90;41.80;;;;;;5076747;28;20092;-75
2024/01/20 07:35:09;;;;;;;16.65;8.52;;;17.90;41.80;;;;;;5112365;28;20028;-75
2024/01/20 07:37:36;;;;;;;20.10;10.07;;;18.00;41.80;;;;;;5093887;28;20085;-77
2024/01/20 07:40:06;;;;;;;18.23;8.82;;;17.90;41.80;;;;;;5093913;28;20527;-75
2024/01/20 07:42:34;;;;;;;13.15;8.40;;;17.80;41.80;;;;;;5111997;28;20089;-76
2024/01/20 07:45:00;;;;;;;14.82;8.63;;;17.90;42.00;;;;;;5112055;28;20047;-76
2024/01/20 07:47:26;;;;;;;15.00;8.40;;;17.90;42.00;;;;;;5111441;28;20036;-76
2024/01/20 07:49:53;;;;;;;18.42;8.95;;;17.90;41.90;;;;;;5111600;28;20028;-76
2024/01/20 07:52:19;;;;;;;17.75;8.63;;;17.80;41.70;;;;;;5093968;28;20090;-76
2024/01/20 07:54:45;;;;;;;16.73;8.70;;;17.90;41.80;;;;;;5112073;28;20035;-76
2024/01/20 07:57:11;;;;;;;16.35;8.15;;;18.00;41.80;;;;;;5111863;28;20085;-76
2024/01/20 07:59:37;;;;;;;15.63;8.40;;;18.00;41.70;;;;;;5093488;28;20096;-75
2024/01/20 08:02:03;;;;;;;16.48;8.65;;;18.00;41.60;;;;;;5093431;28;20047;-77
2024/01/20 08:04:29;;;;;;;19.65;8.65;;;17.90;41.60;;;;;;5088674;28;20090;-75
2024/01/20 08:06:55;;;;;;;16.65;8.75;;;18.10;41.70;;;;;;5071745;28;20048;-76
2024/01/20 08:09:21;;;;;;;16.02;7.63;;;18.10;41.60;;;;;;5071538;28;20051;-76
2024/01/20 08:11:47;;;;;;;15.10;8.38;;;17.90;41.50;;;;;;5088580;28;20131;-75
2024/01/20 08:14:13;;;;;;;18.17;8.25;;;18.10;41.60;;;;;;5088950;28;20519;-76
2024/01/20 08:16:39;;;;;;;13.40;7.47;;;18.10;41.50;;;;;;5071542;28;20567;-76
2024/01/20 08:19:06;;;;;;;13.00;7.40;;;17.90;41.40;;;;;;5088548;28;20063;-76
2024/01/20 08:21:33;;;;;;;14.75;7.88;;;18.10;41.50;;;;;;5054813;28;20081;-75
2024/01/20 08:23:59;;;;;;;16.77;7.65;;;18.10;41.50;;;;;;5088576;28;20059;-75
2024/01/20 08:26:26;;;;;;;17.52;7.63;;;18.10;41.40;;;;;;5088277;28;20060;-76
2024/01/20 08:28:52;;;;;;;16.27;8.32;;;18.00;41.40;;;;;;5088537;28;20139;-76
2024/01/20 08:31:18;;;;;;;13.32;8.07;;;17.90;41.50;;;;;;5088279;28;20059;-75
2024/01/20 08:33:44;;;;;;;15.75;7.47;;;18.00;41.50;;;;;;5071424;28;20048;-76
2024/01/20 08:36:10;;;;;;;12.70;6.90;;;17.90;41.50;;;;;;5088734;28;20048;-75
2024/01/20 08:38:36;;;;;;;14.60;7.57;;;18.00;41.50;;;;;;5088312;28;20512;-76
2024/01/20 08:41:09;;;;;;;19.45;8.75;;;18.10;41.70;;;;;;5088178;28;20075;-76
2024/01/20 08:43:42;;;;;;;14.88;7.95;;;18.00;41.50;;;;;;5075746;28;20089;-74
2024/01/20 08:46:11;;;;;;;15.30;8.48;;;18.00;41.50;;;;;;5091822;28;20036;-75
2024/01/20 08:48:37;;;;;;;17.23;7.95;;;18.00;41.60;;;;;;5101403;28;20036;-75
2024/01/20 08:51:03;;;;;;;15.55;8.50;;;17.90;41.70;;;;;;5087916;28;20464;-76
2024/01/20 08:53:30;;;;;;;18.60;8.90;;;17.90;41.80;;;;;;5088415;28;20028;-76
2024/01/20 08:55:56;;;;;;;16.80;8.82;;;17.90;41.80;;;;;;5088143;28;20093;-76
2024/01/20 08:58:22;;;;;;;19.05;9.27;;;18.00;41.80;;;;;;5071499;28;20040;-76
2024/01/20 09:00:49;;;;;;;15.82;8.60;;;17.90;41.90;;;;;;5073723;28;20027;-76
2024/01/20 09:03:16;;;;;;;18.75;9.45;;;17.90;41.90;;;;;;5096753;28;20047;-75
2024/01/20 09:05:42;;;;;;;16.48;9.30;;;17.90;41.80;;;;;;5114756;28;20027;-76
2024/01/20 09:08:10;;;;;;;19.02;8.95;;;18.00;41.70;;;;;;5115111;28;20446;-74
2024/01/20 09:10:37;;;;;;;17.13;9.13;;;17.90;41.70;;;;;;5034820;28;20045;-76
2024/01/20 09:13:04;;;;;;;14.55;9.20;;;18.00;41.60;;;;;;5051527;28;20049;-76
2024/01/20 09:15:31;;;;;;;15.20;8.40;;;18.00;41.60;;;;;;5051871;28;20071;-76
2024/01/20 09:17:57;;;;;;;16.67;9.68;;;18.10;41.70;;;;;;5051817;28;20037;-76
2024/01/20 09:20:23;;;;;;;19.13;9.13;;;18.00;41.50;;;;;;5051428;28;20072;-76
2024/01/20 09:22:49;;;;;;;19.83;9.27;;;18.00;41.50;;;;;;5051602;28;20037;-76
2024/01/20 09:25:16;;;;;;;14.30;9.13;;;18.00;41.40;;;;;;5034589;28;20136;-76
2024/01/20 09:27:43;;;;;;;17.73;9.38;;;18.10;41.50;;;;;;5051264;28;20061;-75
2024/01/20 09:30:10;;;;;;;17.35;8.00;;;18.10;41.50;;;;;;5051345;28;20136;-76
2024/01/20 09:32:36;;;;;;;18.02;7.68;;;18.00;41.30;;;;;;5051646;28;20036;-76
2024/01/20 09:35:03;;;;;;;14.90;8.35;;;18.00;41.40;;;;;;5051382;28;20488;-76
2024/01/20 09:37:29;;;;;;;16.15;7.88;;;18.10;41.50;;;;;;5051450;28;20527;-76
2024/01/20 09:40:00;;;;;;;11.63;7.50;;;18.10;41.60;;;;;;5051230;28;20116;-76
2024/01/20 09:42:27;;;;;;;14.68;7.70;;;18.00;41.50;;;;;;5086704;28;20045;-77
2024/01/20 09:44:53;;;;;;;10.40;6.90;;;18.10;41.70;;;;;;5079314;28;20031;-76
2024/01/20 09:47:19;;;;;;;16.52;6.95;;;18.00;41.60;;;;;;5114430;28;20043;-75
2024/01/20 09:49:45;;;;;;;12.65;6.90;;;18.10;41.70;;;;;;5113994;28;20038;-76
2024/01/20 09:52:26;;;;;;;10.68;6.15;;;17.90;41.70;;;;;;5114278;28;20064;-76
2024/01/20 09:55:09;;;;;;;14.68;7.70;;;17.90;41.70;;;;;;5095688;28;20073;-75
2024/01/20 09:57:36;;;;;;;14.48;7.25;;;17.90;41.70;;;;;;5114365;28;20032;-76
2024/01/20 10:00:05;;;;;;;12.18;7.35;;;17.90;41.80;;;;;;5114156;28;20043;-76
2024/01/20 10:02:39;;;;;;;14.23;6.55;;;17.90;41.80;;;;;;5114396;28;20068;-76
2024/01/20 10:05:09;;;;;;;14.52;6.70;;;17.80;41.80;;;;;;5095802;28;20106;-76
2024/01/20 10:07:35;;;;;;;12.75;6.50;;;17.90;41.90;;;;;;5113801;28;20070;-77
2024/01/20 10:10:02;;;;;;;11.98;6.28;;;17.80;41.90;;;;;;5095655;28;20450;-76
2024/01/20 10:12:28;;;;;;;12.73;6.50;;;17.80;41.90;;;;;;5113370;28;20110;-76
2024/01/20 10:14:54;;;;;;;13.25;6.90;;;17.90;41.90;;;;;;5113690;28;20035;-76
2024/01/20 10:17:20;;;;;;;14.27;6.22;;;17.90;41.90;;;;;;5095733;28;20046;-77
2024/01/20 10:19:46;;;;;;;10.48;6.32;;;18.00;41.80;;;;;;5095291;28;20346;-76
2024/01/20 10:22:13;;;;;;;12.10;6.40;;;17.90;41.80;;;;;;5113807;28;20019;-76
2024/01/20 10:24:50;;;;;;;10.75;5.75;;;17.90;41.80;;;;;;5095303;28;20058;-75
2024/01/20 10:27:19;;;;;;;12.57;6.63;;;18.00;41.70;;;;;;5113244;28;20044;-77
2024/01/20 10:29:49;;;;;;;11.35;6.45;;;17.90;41.70;;;;;;5113492;28;20483;-76
2024/01/20 10:32:16;;;;;;;10.35;6.22;;;17.90;41.60;;;;;;5095411;28;20039;-75
2024/01/20 10:34:43;;;;;;;13.57;6.82;;;18.00;41.60;;;;;;5098685;27;20055;-76
2024/01/20 10:37:13;;;;;;;9.90;6.25;;;18.00;41.50;;;;;;5133479;27;20030;-77
2024/01/20 10:39:44;;;;;;;11.20;5.57;;;18.00;41.50;;;;;;5115170;27;20027;-76
2024/01/20 10:42:12;;;;;;;9.00;5.88;;;17.90;41.50;;;;;;5135546;27;20027;-76
2024/01/20 10:44:50;;;;;;;11.48;6.75;;;17.90;41.50;;;;;;5134117;27;20092;-76
2024/01/20 10:47:28;;;;;;;9.68;6.47;;;17.90;41.50;;;;;;5133567;27;20035;-76
2024/01/20 10:49:55;;;;;;;8.95;5.68;;;18.00;41.50;;;;;;5127899;27;20486;-73
2024/01/20 10:52:21;;;;;;;11.85;6.35;;;17.80;41.50;;;;;;5113166;28;20040;-75
2024/01/20 10:54:50;;;;;;;11.68;6.15;;;17.80;41.50;;;;;;5113246;28;20039;-76
2024/01/20 10:57:16;;;;;;;9.57;5.80;;;17.90;41.60;;;;;;5095216;28;20413;-77
2024/01/20 10:59:43;;;;;;;12.93;6.45;;;17.90;41.60;;;;;;5112963;28;20057;-76
2024/01/20 11:02:11;;;;;;;13.80;6.38;;;17.80;41.60;;;;;;5113070;28;20023;-75
2024/01/20 11:04:40;;;;;;;11.65;6.38;;;17.80;41.60;;;;;;5094573;28;20061;-75
2024/01/20 11:07:08;;;;;;;11.95;6.70;;;17.90;41.80;;;;;;5112779;28;20541;-75
2024/01/20 11:09:35;;;;;;;10.35;6.07;;;17.80;41.70;;;;;;5112531;28;20134;-76
2024/01/20 11:12:09;;;;;;;9.73;6.10;;;17.80;41.80;;;;;;5112326;28;20371;-76
2024/01/20 11:14:36;;;;;;;10.00;6.32;;;17.80;41.80;;;;;;5112482;28;20149;-76
2024/01/20 11:17:13;;;;;;;14.70;7.15;;;17.70;41.80;;;;;;5112507;28;20071;-76
2024/01/20 11:19:40;;;;;;;9.50;5.70;;;17.70;41.80;;;;;;5112667;28;20097;-76
2024/01/20 11:22:32;;;;;;;9.40;5.82;;;17.70;41.80;;;;;;5112190;28;20031;-77
2024/01/20 11:25:04;;;;;;;8.55;5.30;;;17.70;41.90;;;;;;5112645;28;20044;-75
2024/01/20 11:27:30;;;;;;;9.85;4.95;;;17.70;42.00;;;;;;5076911;28;20411;-76
2024/01/20 11:30:09;;;;;;;8.93;5.45;;;17.80;41.90;;;;;;5093927;28;20046;-77
2024/01/20 11:32:36;;;;;;;8.30;4.75;;;17.80;41.90;;;;;;5094105;28;20040;-76
2024/01/20 11:35:05;;;;;;;7.00;4.40;;;17.80;41.80;;;;;;5112469;28;20040;-76
2024/01/20 11:37:34;;;;;;;9.80;5.35;;;17.80;41.70;;;;;;5112471;28;20089;-76
2024/01/20 11:40:05;;;;;;;12.32;5.13;;;17.90;42.30;;;;;;5112199;28;20425;-77
2024/01/20 11:42:33;;;;;;;8.18;5.13;;;17.90;42.10;;;;;;5111951;28;20049;-76
2024/01/20 11:45:03;;;;;;;6.65;4.88;;;17.90;43.10;;;;;;5112181;28;20080;-77
2024/01/20 11:47:31;;;;;;;7.60;4.93;;;18.20;42.20;;;;;;5112077;28;20129;-76
2024/01/20 11:49:58;;;;;;;8.02;5.45;;;21.90;41.60;;;;;;5093702;28;20690;-76
2024/01/20 11:52:27;;;;;;;6.20;4.82;;;18.50;40.20;;;;;;5093763;28;20020;-76
2024/01/20 11:54:54;;;;;;;6.68;4.10;;;18.30;40.30;;;;;;5093797;28;20034;-76
2024/01/20 11:57:21;;;;;;;4.63;3.65;;;18.30;40.90;;;;;;5093812;28;20398;-76
2024/01/20 11:59:48;;;;;;;12.30;4.65;;;18.10;40.30;;;;;;5093384;28;20407;-76
2024/01/20 12:02:15;;;;;;;6.85;4.10;;;18.30;42.20;;;;;;5111718;28;20111;-76
2024/01/20 12:04:42;;;;;;;9.10;5.28;;;18.60;41.90;;;;;;5093405;28;20051;-76
2024/01/20 12:07:08;;;;;;;9.85;5.95;;;18.10;40.20;;;;;;5093882;28;20035;-76
2024/01/20 12:09:35;;;;;;;8.07;4.78;;;18.00;40.70;;;;;;5111607;28;20076;-76
2024/01/20 12:12:02;;;;;;;10.80;5.30;;;17.90;41.10;;;;;;5093421;28;20035;-76
2024/01/20 12:14:28;;;;;;;7.13;4.57;;;17.80;41.20;;;;;;5111511;28;20153;-77
2024/01/20 12:16:56;;;;;;;7.80;4.78;;;17.90;41.50;;;;;;5111575;28;20027;-76
2024/01/20 12:19:22;;;;;;;8.18;4.97;;;17.80;41.50;;;;;;5111427;28;20509;-76
2024/01/20 12:21:49;;;;;;;7.40;4.88;;;17.80;41.60;;;;;;5111667;28;20024;-75
2024/01/20 12:24:16;;;;;;;7.45;4.97;;;17.70;41.60;;;;;;5111285;28;20051;-75
2024/01/20 12:26:43;;;;;;;7.00;4.28;;;17.70;41.70;;;;;;5111640;28;20036;-76
2024/01/20 12:29:09;;;;;;;7.13;4.15;;;17.70;41.90;;;;;;5093472;28;20126;-76
2024/01/20 12:31:35;;;;;;;7.82;4.45;;;17.80;42.00;;;;;;5111308;28;20035;-76
2024/01/20 12:34:02;;;;;;;6.50;3.95;;;17.70;42.10;;;;;;5094171;28;20134;-76
2024/01/20 12:36:28;;;;;;;6.97;3.85;;;17.70;42.10;;;;;;5097232;28;20297;-76